createdAt,value
2023-01-29T00:02:23.117Z,0
2023-01-29T00:07:23.052Z,0
2023-01-29T00:12:23.037Z,0
2023-01-29T00:17:23.098Z,0
2023-01-29T00:22:23.021Z,0
2023-01-29T00:27:23.089Z,0
2023-01-29T00:32:23.032Z,0
2023-01-29T00:37:23.024Z,0
2023-01-29T00:42:23.021Z,0
2023-01-29T00:47:23.041Z,0
2023-01-29T00:52:23.011Z,0
2023-01-29T00:57:23.034Z,0
2023-01-29T01:02:23.105Z,0
2023-01-29T01:07:23.053Z,0
2023-01-29T01:12:22.992Z,0
2023-01-29T01:17:23.046Z,0
2023-01-29T01:22:23.024Z,0
2023-01-29T01:27:23.026Z,0
2023-01-29T01:32:23.010Z,0
2023-01-29T01:37:22.977Z,0
2023-01-29T01:42:22.968Z,0
2023-01-29T01:47:22.990Z,0
2023-01-29T01:52:22.976Z,0
2023-01-29T01:57:22.967Z,0
2023-01-29T02:02:23.244Z,0
2023-01-29T02:07:23.287Z,0
2023-01-29T02:12:23.239Z,0
2023-01-29T02:17:23.489Z,0
2023-01-29T02:22:23.470Z,0
2023-01-29T02:27:23.484Z,0
2023-01-29T02:32:23.495Z,0
2023-01-29T02:37:23.475Z,0
2023-01-29T02:42:23.437Z,0
2023-01-29T02:47:24.473Z,0
2023-01-29T02:52:24.424Z,0
2023-01-29T02:57:24.414Z,0
2023-01-29T03:02:24.491Z,0
2023-01-29T03:07:24.453Z,0
2023-01-29T03:12:24.423Z,0
2023-01-29T03:17:24.416Z,0
2023-01-29T03:22:24.426Z,0
2023-01-29T03:27:24.425Z,0
2023-01-29T03:32:24.421Z,0
2023-01-29T03:37:24.405Z,0
2023-01-29T03:42:24.398Z,0
2023-01-29T03:47:24.421Z,0
2023-01-29T03:52:24.427Z,0
2023-01-29T03:57:24.439Z,0
2023-01-29T04:02:24.383Z,0
2023-01-29T04:07:24.438Z,0
2023-01-29T04:12:24.396Z,0
2023-01-29T04:17:24.409Z,0
2023-01-29T04:22:24.377Z,0
2023-01-29T04:27:24.443Z,0
2023-01-29T04:32:24.374Z,0
2023-01-29T04:37:24.353Z,0
2023-01-29T04:42:24.391Z,0
2023-01-29T04:47:24.394Z,0
2023-01-29T04:52:24.389Z,0
2023-01-29T04:57:24.356Z,0
2023-01-29T05:02:24.426Z,0
2023-01-29T05:07:24.387Z,0
2023-01-29T05:12:24.364Z,0
2023-01-29T05:17:24.357Z,0
2023-01-29T05:22:24.347Z,0
2023-01-29T05:27:24.339Z,0
2023-01-29T05:32:24.348Z,0
2023-01-29T05:37:24.336Z,0
2023-01-29T05:42:24.351Z,0
2023-01-29T05:47:24.963Z,0
2023-01-29T05:52:24.954Z,0
2023-01-29T05:57:24.933Z,0
2023-01-29T06:02:24.949Z,0
2023-01-29T06:07:24.973Z,0
2023-01-29T06:12:24.922Z,0
2023-01-29T06:17:24.940Z,0
2023-01-29T06:22:24.936Z,0
2023-01-29T06:27:24.954Z,0
2023-01-29T06:32:24.978Z,0
2023-01-29T06:37:24.943Z,0
2023-01-29T06:42:24.941Z,0
2023-01-29T06:47:24.909Z,0
2023-01-29T06:52:24.905Z,0
2023-01-29T06:57:24.891Z,0
2023-01-29T07:02:25.005Z,0
2023-01-29T07:07:24.924Z,0
2023-01-29T07:12:24.895Z,0
2023-01-29T07:17:24.874Z,0
2023-01-29T07:22:24.934Z,0
2023-01-29T07:27:24.903Z,2
2023-01-29T07:32:25.003Z,1
2023-01-29T07:37:24.898Z,2
2023-01-29T07:42:24.922Z,8
2023-01-29T07:47:25.680Z,10
2023-01-29T07:52:25.694Z,11
2023-01-29T07:57:25.898Z,11
2023-01-29T08:02:25.998Z,21
2023-01-29T08:07:26.883Z,26
2023-01-29T08:12:26.902Z,18
2023-01-29T08:17:26.872Z,12
2023-01-29T08:22:26.900Z,14
2023-01-29T08:27:26.914Z,10
2023-01-29T08:32:26.895Z,13
2023-01-29T08:37:26.909Z,22
2023-01-29T08:42:26.882Z,28
2023-01-29T08:47:28.596Z,23
2023-01-29T08:52:26.887Z,28
2023-01-29T08:57:27.043Z,35
2023-01-29T09:02:26.938Z,33
2023-01-29T09:07:27.103Z,17
2023-01-29T09:12:27.353Z,18
2023-01-29T09:17:27.138Z,22
2023-01-29T09:22:27.156Z,30
2023-01-29T09:27:27.078Z,48
2023-01-29T09:32:51.934Z,69
2023-01-29T09:37:27.214Z,76
2023-01-29T09:42:27.101Z,57
2023-01-29T09:47:28.124Z,54
2023-01-29T09:52:28.187Z,60
2023-01-29T09:57:28.150Z,79
2023-01-29T10:02:28.220Z,124
2023-01-29T10:07:28.302Z,129
2023-01-29T10:12:28.142Z,123
2023-01-29T10:17:28.417Z,109
2023-01-29T10:22:28.427Z,94
2023-01-29T10:27:28.385Z,96
2023-01-29T10:32:28.418Z,93
2023-01-29T10:37:28.377Z,52
2023-01-29T10:42:28.395Z,49
2023-01-29T10:47:30.219Z,48
2023-01-29T10:52:28.411Z,30
2023-01-29T10:57:28.374Z,26
2023-01-29T11:02:28.427Z,36
2023-01-29T11:07:28.637Z,33
2023-01-29T11:12:30.122Z,37
2023-01-29T11:17:35.828Z,33
2023-01-29T11:22:35.803Z,41
2023-01-29T11:27:35.768Z,48
2023-01-29T11:32:35.769Z,47
2023-01-29T11:37:35.776Z,50
2023-01-29T11:42:35.767Z,55
2023-01-29T11:47:36.063Z,57
2023-01-29T11:52:36.010Z,52
2023-01-29T11:57:36.044Z,49
2023-01-29T12:02:36.022Z,49
2023-01-29T12:07:35.999Z,45
2023-01-29T12:12:36.027Z,47
2023-01-29T12:17:36.142Z,53
2023-01-29T12:22:36.011Z,51
2023-01-29T12:27:36.037Z,52
2023-01-29T12:32:36.029Z,49
2023-01-29T12:37:35.991Z,51
2023-01-29T12:42:36.073Z,44
2023-01-29T12:47:36.019Z,42
2023-01-29T12:52:36.029Z,42
2023-01-29T12:57:36.261Z,40
2023-01-29T13:02:36.235Z,45
2023-01-29T13:07:36.236Z,42
2023-01-29T13:12:36.257Z,38
2023-01-29T13:17:36.243Z,39
2023-01-29T13:22:36.236Z,42
2023-01-29T13:27:36.356Z,46
2023-01-29T13:32:36.219Z,54
2023-01-29T13:37:36.255Z,60
2023-01-29T13:42:36.203Z,66
2023-01-29T13:47:36.474Z,47
2023-01-29T13:52:36.508Z,27
2023-01-29T13:57:36.494Z,22
2023-01-29T14:02:36.513Z,20
2023-01-29T14:07:36.477Z,18
2023-01-29T14:12:36.462Z,18
2023-01-29T14:17:36.492Z,19
2023-01-29T14:22:36.467Z,21
2023-01-29T14:27:36.446Z,24
2023-01-29T14:32:36.477Z,15
2023-01-29T14:37:36.538Z,15
2023-01-29T14:42:36.468Z,12
2023-01-29T14:47:36.443Z,12
2023-01-29T14:52:36.444Z,12
2023-01-29T14:57:36.513Z,10
2023-01-29T15:02:36.731Z,13
2023-01-29T15:07:36.686Z,7
2023-01-29T15:12:36.699Z,6
2023-01-29T15:17:36.854Z,2
2023-01-29T15:22:36.688Z,4
2023-01-29T15:27:36.677Z,3
2023-01-29T15:32:36.923Z,4
2023-01-29T15:37:36.930Z,0
2023-01-29T15:42:36.901Z,0
2023-01-29T15:47:36.943Z,0
2023-01-29T15:52:36.919Z,0
2023-01-29T15:57:36.931Z,0
2023-01-29T16:02:37.019Z,0
2023-01-29T16:07:36.917Z,0
2023-01-29T16:12:36.887Z,0
2023-01-29T16:17:36.915Z,0
2023-01-29T16:22:36.911Z,0
2023-01-29T16:27:36.923Z,0
2023-01-29T16:32:36.918Z,0
2023-01-29T16:37:36.933Z,0
2023-01-29T16:42:36.894Z,0
2023-01-29T16:47:36.932Z,0
2023-01-29T16:52:36.903Z,0
2023-01-29T16:57:36.906Z,0
2023-01-29T17:02:36.862Z,0
2023-01-29T17:07:36.889Z,0
2023-01-29T17:12:38.854Z,0
2023-01-29T17:17:36.866Z,0
2023-01-29T17:22:36.844Z,0
2023-01-29T17:27:36.893Z,0
2023-01-29T17:32:39.942Z,0
2023-01-29T17:37:36.880Z,0
2023-01-29T17:42:36.851Z,0
2023-01-29T17:47:36.867Z,0
2023-01-29T17:52:36.846Z,0
2023-01-29T17:57:36.866Z,0
2023-01-29T18:02:37.504Z,0
2023-01-29T18:07:37.498Z,0
2023-01-29T18:12:37.661Z,0
2023-01-29T18:17:37.509Z,0
2023-01-29T18:22:37.523Z,0
2023-01-29T18:27:37.496Z,0
2023-01-29T18:32:37.519Z,0
2023-01-29T18:37:37.516Z,0
2023-01-29T18:42:37.602Z,0
2023-01-29T18:47:37.517Z,0
2023-01-29T18:52:37.470Z,0
2023-01-29T18:58:26.446Z,0
2023-01-29T19:02:37.832Z,0
2023-01-29T19:07:37.747Z,0
2023-01-29T19:12:37.725Z,0
2023-01-29T19:17:37.741Z,0
2023-01-29T19:22:37.721Z,0
2023-01-29T19:27:37.733Z,0
2023-01-29T19:32:37.746Z,0
2023-01-29T19:37:37.693Z,0
2023-01-29T19:42:37.724Z,0
2023-01-29T19:47:37.746Z,0
2023-01-29T19:52:50.567Z,0
2023-01-29T19:57:37.724Z,0
2023-01-29T20:02:38.523Z,0
2023-01-29T20:07:38.617Z,0
2023-01-29T20:12:38.514Z,0
2023-01-29T20:17:38.501Z,0
2023-01-29T20:22:38.506Z,0
2023-01-29T20:27:38.457Z,0
2023-01-29T20:32:38.469Z,0
2023-01-29T20:37:38.483Z,0
2023-01-29T20:42:38.479Z,0
2023-01-29T20:47:38.473Z,0
2023-01-29T20:52:38.467Z,0
2023-01-29T20:57:38.501Z,0
2023-01-29T21:02:38.472Z,0
2023-01-29T21:07:38.479Z,0
2023-01-29T21:12:38.481Z,0
2023-01-29T21:17:38.459Z,0
2023-01-29T21:22:38.464Z,0
2023-01-29T21:27:38.457Z,0
2023-01-29T21:32:38.434Z,0
2023-01-29T21:37:38.453Z,0
2023-01-29T21:42:38.453Z,0
2023-01-29T21:47:38.422Z,0
2023-01-29T21:52:38.449Z,0
2023-01-29T21:57:38.420Z,0
2023-01-29T22:02:38.512Z,0
2023-01-29T22:07:38.425Z,0
2023-01-29T22:12:38.433Z,0
2023-01-29T22:17:38.401Z,0
2023-01-29T22:22:38.433Z,0
2023-01-29T22:27:38.409Z,0
2023-01-29T22:32:38.436Z,0
2023-01-29T22:37:38.441Z,0
2023-01-29T22:42:38.407Z,0
2023-01-29T22:47:38.381Z,0
2023-01-29T22:52:38.472Z,0
2023-01-29T22:57:38.396Z,0
2023-01-29T23:02:38.400Z,0
2023-01-29T23:07:38.378Z,0
2023-01-29T23:12:38.380Z,0
2023-01-29T23:17:38.390Z,0
2023-01-29T23:22:38.385Z,0
2023-01-29T23:27:38.405Z,0
2023-01-29T23:32:38.389Z,0
2023-01-29T23:37:38.361Z,0
2023-01-29T23:42:38.363Z,0
2023-01-29T23:47:38.390Z,0
2023-01-29T23:52:38.359Z,0
2023-01-29T23:57:38.341Z,0
